aviador You're here:

DABT Decoded Metar

BATNA in ALGERIA
Report Time2018-05-21 20:00:00
UTC Time2018-05-21 20:34:37
Flight Rules vfr VFR
Wind060° at 04 kt
W.Decomp.*RWY 05: 4.0 kt HW 0.6 kt RCW
W.Rank060° ranks 19
Current wind is below 060° avg. (7.5)
Visibility9999 m
Phenomena:N/A
Clouds:Scattered 023 Hf
Broken 200 Hf
Expected CloudBase > 2,400 ft AGL from Temp-Dew spread
Ceiling20,000 ft
Temp15°C (ISA +7)
Dew Point09°C (68% RH)
AAT13.4°C
QNH1014 hPa
Density Alt4,386 ft
Elevation3,451 ft
Report Wrong Elevation
Raw Report
DABT 212000Z 06004KT 9999 SCT023 BKN200 15/09 Q1014=

Extra information for DABT:More info

Metar Taf Metar & Taf Last 4 Metars F.Rules Stats Wind Profile Meteogram Temp Stats Airport Information Weather charts Add Link Nearby VenuesMetar ALERT Operation Metar Decoded Social comments